Terminal Aerodrome Forecast
Issued by NWS Hastings, NE

Home | Current Version | Previous Version | Text Only | Print | Product List | Glossary On
Versions: 1 2 3 4 5 6 7 8 9 10 11 12 13 14 15 16 17
465
FTUS45 KGID 200540
TAFEAR
TAF
KEAR 200540Z 2006/2106 15009KT P6SM VCTS BKN090CB WS010/20035KT
     FM200900 15007KT P6SM SCT090 WS010/22040KT
     FM201200 VRB05KT P6SM FEW200 WS010/22030KT
     FM201400 VRB05KT P6SM FEW150=

USA.gov is the U.S. government's official web portal to all federal, state and local government web resources and services.